createdAt,value
2023-05-14T00:01:19.556Z,10.10
2023-05-14T00:03:53.875Z,10.95
2023-05-14T00:06:33.867Z,11.38
2023-05-14T00:09:10.816Z,11.60
2023-05-14T00:11:47.915Z,10.60
2023-05-14T00:14:21.824Z,10.63
2023-05-14T00:16:52.163Z,12.13
2023-05-14T00:19:28.930Z,12.00
2023-05-14T00:21:59.559Z,11.52
2023-05-14T00:24:35.633Z,10.57
2023-05-14T00:27:04.344Z,12.10
2023-05-14T00:29:37.905Z,10.68
2023-05-14T00:32:07.621Z,11.93
2023-05-14T00:34:43.994Z,12.20
2023-05-14T00:37:11.698Z,12.35
2023-05-14T00:39:45.746Z,11.90
2023-05-14T00:42:13.468Z,11.90
2023-05-14T00:44:50.484Z,13.05
2023-05-14T00:47:24.772Z,12.93
2023-05-14T00:50:03.214Z,13.63
2023-05-14T00:52:36.918Z,12.77
2023-05-14T00:55:13.886Z,13.05
2023-05-14T00:57:50.569Z,13.25
2023-05-14T01:00:25.241Z,13.35
2023-05-14T01:02:59.864Z,13.63
2023-05-14T01:05:52.761Z,13.20
2023-05-14T01:08:57.755Z,14.50
2023-05-14T01:11:42.736Z,13.52
2023-05-14T01:14:22.373Z,14.75
2023-05-14T01:16:59.814Z,14.13
2023-05-14T01:19:50.775Z,13.70
2023-05-14T01:22:24.864Z,13.35
2023-05-14T01:24:58.673Z,14.90
2023-05-14T01:27:39.041Z,15.25
2023-05-14T01:30:34.892Z,15.60
2023-05-14T01:33:13.769Z,15.73
2023-05-14T01:35:41.856Z,15.15
2023-05-14T01:38:18.699Z,16.20
2023-05-14T01:40:47.309Z,16.42
2023-05-14T01:43:21.903Z,15.50
2023-05-14T01:45:55.854Z,15.50
2023-05-14T01:48:23.504Z,15.27
2023-05-14T01:50:57.718Z,15.80
2023-05-14T01:53:25.333Z,15.88
2023-05-14T01:56:02.778Z,15.30
2023-05-14T01:58:49.797Z,15.15
2023-05-14T02:01:23.769Z,13.85
2023-05-14T02:03:51.701Z,16.25
2023-05-14T02:06:25.712Z,16.42
2023-05-14T02:08:53.148Z,15.57
2023-05-14T02:11:27.771Z,15.75
2023-05-14T02:13:55.182Z,15.57
2023-05-14T02:16:22.739Z,15.32
2023-05-14T02:18:56.802Z,15.73
2023-05-14T02:21:24.761Z,15.60
2023-05-14T02:23:58.920Z,14.63
2023-05-14T02:26:26.220Z,15.73
2023-05-14T02:28:59.751Z,16.85
2023-05-14T02:31:27.179Z,16.30
2023-05-14T02:34:04.092Z,14.60
2023-05-14T02:36:40.852Z,16.05
2023-05-14T02:39:14.875Z,15.05
2023-05-14T02:41:42.359Z,17.52
2023-05-14T02:44:16.812Z,16.40
2023-05-14T02:46:44.376Z,16.27
2023-05-14T02:49:18.790Z,18.02
2023-05-14T02:51:46.198Z,16.67
2023-05-14T02:54:19.796Z,17.38
2023-05-14T02:56:47.634Z,17.55
2023-05-14T02:59:31.823Z,17.67
2023-05-14T03:02:02.404Z,15.82
2023-05-14T03:04:36.803Z,16.02
2023-05-14T03:07:04.223Z,16.30
2023-05-14T03:09:31.644Z,16.45
2023-05-14T03:12:07.781Z,17.75
2023-05-14T03:14:43.237Z,16.73
2023-05-14T03:17:19.789Z,15.82
2023-05-14T03:19:47.159Z,16.48
2023-05-14T03:22:23.749Z,17.23
2023-05-14T03:24:54.309Z,16.80
2023-05-14T03:27:33.148Z,16.08
2023-05-14T03:30:00.459Z,16.30
2023-05-14T03:32:40.012Z,16.52
2023-05-14T03:35:08.618Z,15.50
2023-05-14T03:37:42.776Z,14.52
2023-05-14T03:40:10.998Z,15.30
2023-05-14T03:42:47.977Z,16.38
2023-05-14T03:45:17.016Z,17.27
2023-05-14T03:47:44.512Z,17.38
2023-05-14T03:50:19.065Z,16.83
2023-05-14T03:52:52.865Z,16.65
2023-05-14T03:55:26.831Z,17.25
2023-05-14T03:58:01.213Z,16.65
2023-05-14T04:00:40.857Z,16.85
2023-05-14T04:03:11.625Z,16.95
2023-05-14T04:05:45.996Z,16.60
2023-05-14T04:08:15.953Z,17.30
2023-05-14T04:10:53.515Z,15.60
2023-05-14T04:13:20.688Z,16.38
2023-05-14T04:15:55.106Z,16.98
2023-05-14T04:18:22.470Z,18.52
2023-05-14T04:20:55.725Z,17.35
2023-05-14T04:23:33.835Z,17.83
2023-05-14T04:26:07.863Z,18.15
2023-05-14T04:28:35.495Z,18.52
2023-05-14T04:31:12.893Z,19.25
2023-05-14T04:33:40.218Z,17.98
2023-05-14T04:36:07.937Z,18.65
2023-05-14T04:38:41.879Z,18.98
2023-05-14T04:41:18.868Z,19.05
2023-05-14T04:43:56.829Z,18.65
2023-05-14T04:46:26.257Z,18.90
2023-05-14T04:48:59.968Z,20.17
2023-05-14T04:51:30.577Z,19.00
2023-05-14T04:54:04.969Z,18.92
2023-05-14T04:56:32.220Z,18.30
2023-05-14T04:59:12.899Z,18.20
2023-05-14T05:01:46.831Z,18.20
2023-05-14T05:04:20.783Z,18.63
2023-05-14T05:06:57.873Z,16.20
2023-05-14T05:09:28.514Z,17.60
2023-05-14T05:12:02.893Z,18.70
2023-05-14T05:14:30.309Z,18.27
2023-05-14T05:17:04.049Z,18.42
2023-05-14T05:19:43.570Z,17.88
2023-05-14T05:22:20.853Z,18.23
2023-05-14T05:24:54.974Z,17.65
2023-05-14T05:27:31.917Z,18.27
2023-05-14T05:29:59.586Z,19.52
2023-05-14T05:32:33.998Z,19.33
2023-05-14T05:35:07.959Z,17.13
2023-05-14T05:37:41.900Z,20.17
2023-05-14T05:40:10.721Z,19.27
2023-05-14T05:42:45.016Z,19.95
2023-05-14T05:45:12.524Z,20.33
2023-05-14T05:47:46.914Z,19.58
2023-05-14T05:50:14.565Z,20.25
2023-05-14T05:52:45.101Z,19.95
2023-05-14T05:55:19.388Z,18.45
2023-05-14T05:57:53.410Z,20.58
2023-05-14T06:00:33.877Z,20.38
2023-05-14T06:03:01.966Z,19.42
2023-05-14T06:05:36.028Z,19.85
2023-05-14T06:08:03.918Z,18.48
2023-05-14T06:10:41.838Z,19.35
2023-05-14T06:13:15.245Z,19.83
2023-05-14T06:15:49.331Z,20.48
2023-05-14T06:18:17.027Z,21.35
2023-05-14T06:20:51.993Z,20.63
2023-05-14T06:23:22.534Z,20.73
2023-05-14T06:26:05.072Z,20.15
2023-05-14T06:28:38.898Z,18.88
2023-05-14T06:31:09.306Z,19.52
2023-05-14T06:33:43.027Z,19.92
2023-05-14T06:36:26.959Z,18.50
2023-05-14T06:39:00.919Z,19.15
2023-05-14T06:41:32.234Z,18.80
2023-05-14T06:44:11.873Z,18.23
2023-05-14T06:46:39.340Z,18.95
2023-05-14T06:49:13.050Z,18.75
2023-05-14T06:51:43.353Z,17.17
2023-05-14T06:54:20.545Z,18.50
2023-05-14T06:56:48.130Z,17.92
2023-05-14T06:59:31.908Z,17.02
2023-05-14T07:02:03.924Z,18.40
2023-05-14T07:04:40.179Z,18.40
2023-05-14T07:07:07.531Z,18.15
2023-05-14T07:09:43.004Z,17.80
2023-05-14T07:12:10.377Z,18.63
2023-05-14T07:14:47.910Z,18.42
2023-05-14T07:17:22.209Z,17.75
2023-05-14T07:19:50.618Z,18.30
2023-05-14T07:22:23.827Z,18.92
2023-05-14T07:24:53.797Z,17.50
2023-05-14T07:27:29.908Z,16.63
2023-05-14T07:29:59.562Z,17.58
2023-05-14T07:32:32.863Z,17.70
2023-05-14T07:35:02.260Z,16.35
2023-05-14T07:37:36.951Z,18.05
2023-05-14T07:40:11.142Z,15.90
2023-05-14T07:42:43.858Z,16.88
2023-05-14T07:45:21.184Z,16.10
2023-05-14T07:48:01.015Z,15.95
2023-05-14T07:50:28.149Z,14.55
2023-05-14T07:52:55.206Z,16.52
2023-05-14T07:55:28.801Z,17.30
2023-05-14T07:58:25.809Z,16.80
2023-05-14T08:01:00.240Z,16.50
2023-05-14T08:03:30.310Z,15.65
2023-05-14T08:06:06.443Z,15.85
2023-05-14T08:08:33.472Z,14.95
2023-05-14T08:11:09.916Z,16.15
2023-05-14T08:13:36.919Z,15.27
2023-05-14T08:16:09.951Z,15.35
2023-05-14T08:18:39.210Z,15.63
2023-05-14T08:21:13.016Z,14.75
2023-05-14T08:23:40.065Z,15.18
2023-05-14T08:26:13.978Z,15.18
2023-05-14T08:28:40.818Z,14.80
2023-05-14T08:31:16.965Z,14.57
2023-05-14T08:33:43.978Z,14.07
2023-05-14T08:39:16.003Z,13.02
2023-05-14T08:41:44.035Z,13.75
2023-05-14T08:44:24.871Z,12.18
2023-05-14T08:46:54.088Z,13.65
2023-05-14T08:49:39.044Z,14.20
2023-05-14T08:52:06.527Z,13.30
2023-05-14T08:54:39.950Z,13.30
2023-05-14T08:57:10.092Z,12.02
2023-05-14T08:59:49.892Z,10.05
2023-05-14T09:02:31.455Z,10.93
2023-05-14T09:05:00.351Z,12.30
2023-05-14T09:07:34.035Z,12.05
2023-05-14T09:10:15.960Z,11.90
2023-05-14T09:12:48.912Z,11.50
2023-05-14T09:15:23.004Z,11.40
2023-05-14T09:17:56.998Z,11.88
2023-05-14T09:20:25.413Z,12.48
2023-05-14T09:23:02.870Z,12.02
2023-05-14T09:25:33.331Z,12.30
2023-05-14T09:28:07.004Z,11.60
2023-05-14T09:30:35.258Z,11.02
2023-05-14T09:33:10.911Z,11.18
2023-05-14T09:35:40.692Z,10.73
2023-05-14T09:38:15.010Z,10.93
2023-05-14T09:40:42.259Z,10.43
2023-05-14T09:43:16.006Z,10.32
2023-05-14T09:45:43.092Z,9.25
2023-05-14T09:48:18.384Z,9.60
2023-05-14T09:50:53.031Z,9.88
2023-05-14T09:53:19.966Z,9.15
2023-05-14T09:55:54.024Z,9.40
2023-05-14T09:58:27.070Z,9.43
2023-05-14T10:01:09.091Z,9.38
2023-05-14T10:03:37.112Z,9.70
2023-05-14T10:06:12.950Z,8.07
2023-05-14T10:08:50.948Z,9.43
2023-05-14T10:11:29.079Z,9.10
2023-05-14T10:14:18.512Z,8.77
2023-05-14T10:16:58.026Z,8.98
2023-05-14T10:19:25.885Z,8.77
2023-05-14T10:22:05.056Z,8.55
2023-05-14T10:24:32.969Z,8.73
2023-05-14T10:27:06.946Z,8.13
2023-05-14T10:29:38.725Z,8.07
2023-05-14T10:32:15.999Z,9.23
2023-05-14T10:34:53.133Z,8.13
2023-05-14T10:37:30.334Z,8.38
2023-05-14T10:40:04.354Z,7.68
2023-05-14T10:42:48.000Z,12.38
2023-05-14T10:45:16.778Z,8.80
2023-05-14T10:47:53.087Z,7.18
2023-05-14T10:50:21.195Z,6.57
2023-05-14T10:52:55.187Z,6.35
2023-05-14T10:55:23.122Z,6.18
2023-05-14T10:57:57.095Z,5.97
2023-05-14T11:00:33.256Z,6.70
2023-05-14T11:03:14.083Z,6.78
2023-05-14T11:05:42.198Z,6.60
2023-05-14T11:08:16.075Z,6.43
2023-05-14T11:10:43.762Z,6.18
2023-05-14T11:13:17.147Z,5.43
2023-05-14T11:15:55.071Z,5.50
2023-05-14T11:18:47.115Z,5.30
2023-05-14T11:21:21.031Z,5.18
2023-05-14T11:23:48.471Z,5.57
2023-05-14T11:26:22.122Z,5.60
2023-05-14T11:28:49.344Z,5.28
2023-05-14T11:31:23.093Z,5.57
2023-05-14T11:33:50.021Z,4.38
2023-05-14T11:36:23.991Z,4.40
2023-05-14T11:38:59.056Z,3.95
2023-05-14T11:41:35.068Z,3.88
2023-05-14T11:44:03.302Z,4.50
2023-05-14T11:46:31.186Z,4.15
2023-05-14T11:49:04.975Z,4.97
2023-05-14T11:51:32.262Z,4.93
2023-05-14T11:54:08.099Z,4.82
2023-05-14T11:56:35.212Z,4.47
2023-05-14T11:59:09.045Z,4.07
2023-05-14T12:01:45.973Z,4.45
2023-05-14T12:04:21.077Z,3.75
2023-05-14T12:06:51.612Z,3.85
2023-05-14T12:09:26.038Z,4.10
2023-05-14T12:11:53.327Z,4.45
2023-05-14T12:14:31.072Z,4.30
2023-05-14T12:16:57.937Z,4.07
2023-05-14T12:19:32.054Z,4.35
2023-05-14T12:22:01.630Z,4.28
2023-05-14T12:24:36.043Z,4.57
2023-05-14T12:27:10.159Z,4.43
2023-05-14T12:29:48.084Z,4.18
2023-05-14T12:32:21.049Z,3.95
2023-05-14T12:34:54.079Z,4.20
2023-05-14T12:37:27.962Z,4.18
2023-05-14T12:39:56.462Z,3.90
2023-05-14T12:42:37.082Z,3.97
2023-05-14T12:45:14.268Z,3.92
2023-05-14T12:47:48.254Z,3.97
2023-05-14T12:50:22.540Z,4.10
2023-05-14T12:52:56.147Z,4.10
2023-05-14T12:55:23.042Z,4.45
2023-05-14T12:57:56.153Z,4.22
2023-05-14T13:00:29.617Z,3.80
2023-05-14T13:03:03.114Z,4.18
2023-05-14T13:05:30.086Z,4.50
2023-05-14T13:08:06.010Z,4.00
2023-05-14T13:10:32.856Z,4.40
2023-05-14T13:13:06.084Z,4.53
2023-05-14T13:15:33.853Z,4.28
2023-05-14T13:18:07.050Z,4.70
2023-05-14T13:20:43.080Z,4.60
2023-05-14T13:23:10.226Z,4.40
2023-05-14T13:25:44.163Z,3.97
2023-05-14T13:28:11.266Z,3.70
2023-05-14T13:30:45.305Z,4.18
2023-05-14T13:33:12.747Z,4.40
2023-05-14T13:35:46.148Z,3.92
2023-05-14T13:38:12.970Z,4.22
2023-05-14T13:40:46.156Z,4.25
2023-05-14T13:43:13.102Z,3.65
2023-05-14T13:45:47.174Z,3.70
2023-05-14T13:48:14.379Z,3.85
2023-05-14T13:50:48.161Z,3.80
2023-05-14T13:53:21.079Z,3.33
2023-05-14T13:55:49.338Z,3.80
2023-05-14T13:58:23.163Z,3.22
2023-05-14T14:00:56.840Z,3.33
2023-05-14T14:03:30.125Z,3.42
2023-05-14T14:05:57.201Z,3.50
2023-05-14T14:08:31.189Z,3.78
2023-05-14T14:10:58.095Z,3.78
2023-05-14T14:13:31.229Z,3.60
2023-05-14T14:15:58.364Z,3.78
2023-05-14T14:18:32.265Z,3.38
2023-05-14T14:20:59.070Z,3.67
2023-05-14T14:23:32.113Z,3.80
2023-05-14T14:26:05.524Z,3.53
2023-05-14T14:28:39.185Z,3.55
2023-05-14T14:31:13.121Z,3.47
2023-05-14T14:33:40.063Z,3.95
2023-05-14T14:36:14.120Z,3.65
2023-05-14T14:38:41.111Z,3.72
2023-05-14T14:41:15.136Z,3.33
2023-05-14T14:43:42.562Z,3.40
2023-05-14T14:46:16.242Z,3.60
2023-05-14T14:48:46.651Z,3.42
2023-05-14T14:51:20.132Z,3.90
2023-05-14T14:53:47.093Z,3.55
2023-05-14T14:56:20.085Z,3.80
2023-05-14T14:58:53.172Z,3.67
2023-05-14T15:01:26.898Z,3.65
2023-05-14T15:04:00.241Z,3.55
2023-05-14T15:06:27.227Z,3.53
2023-05-14T15:08:54.428Z,3.05
2023-05-14T15:11:28.184Z,3.47
2023-05-14T15:14:02.143Z,3.45
2023-05-14T15:16:35.201Z,2.80
2023-05-14T15:19:02.235Z,3.13
2023-05-14T15:21:29.073Z,3.28
2023-05-14T15:24:03.245Z,3.83
2023-05-14T15:26:30.395Z,3.83
2023-05-14T15:29:05.262Z,3.55
2023-05-14T15:31:32.559Z,3.50
2023-05-14T15:34:06.258Z,3.63
2023-05-14T15:36:33.216Z,3.70
2023-05-14T15:39:07.255Z,3.90
2023-05-14T15:41:34.672Z,3.72
2023-05-14T15:44:08.175Z,3.58
2023-05-14T15:46:35.960Z,3.55
2023-05-14T15:49:09.220Z,3.15
2023-05-14T15:51:43.234Z,3.60
2023-05-14T15:54:10.266Z,3.85
2023-05-14T15:56:44.338Z,3.80
2023-05-14T15:59:18.303Z,3.67
2023-05-14T16:01:58.915Z,3.42
2023-05-14T16:04:25.712Z,3.45
2023-05-14T16:06:59.199Z,3.53
2023-05-14T16:09:33.324Z,3.72
2023-05-14T16:12:00.337Z,3.60
2023-05-14T16:14:34.165Z,3.70
2023-05-14T16:17:02.088Z,3.22
2023-05-14T16:19:35.428Z,3.65
2023-05-14T16:22:02.506Z,4.25
2023-05-14T16:24:36.387Z,3.55
2023-05-14T16:27:04.070Z,3.50
2023-05-14T16:29:38.246Z,3.60
2023-05-14T16:32:05.478Z,3.38
2023-05-14T16:34:40.238Z,3.63
2023-05-14T16:37:07.488Z,3.70
2023-05-14T16:39:41.286Z,3.70
2023-05-14T16:42:08.354Z,3.40
2023-05-14T16:44:42.249Z,3.83
2023-05-14T16:47:16.287Z,3.88
2023-05-14T16:49:43.722Z,3.80
2023-05-14T16:52:17.253Z,3.60
2023-05-14T16:54:44.297Z,4.10
2023-05-14T16:57:18.318Z,3.67
2023-05-14T16:59:52.383Z,4.07
2023-05-14T17:02:32.165Z,3.65
2023-05-14T17:04:59.482Z,4.00
2023-05-14T17:07:33.289Z,3.92
2023-05-14T17:10:01.137Z,4.65
2023-05-14T17:12:34.343Z,4.30
2023-05-14T17:15:04.519Z,3.72
2023-05-14T17:17:40.276Z,4.45
2023-05-14T17:20:08.456Z,4.30
2023-05-14T17:22:42.261Z,4.88
2023-05-14T17:25:16.308Z,4.22
2023-05-14T17:27:43.498Z,4.18
2023-05-14T17:30:17.887Z,4.32
2023-05-14T17:32:44.907Z,4.50
2023-05-14T17:35:19.263Z,4.25
2023-05-14T17:37:46.400Z,4.22
2023-05-14T17:40:20.779Z,4.72
2023-05-14T17:42:47.988Z,3.92
2023-05-14T17:45:22.388Z,3.72
2023-05-14T17:47:50.874Z,3.88
2023-05-14T17:50:18.534Z,4.70
2023-05-14T17:52:54.023Z,4.50
2023-05-14T17:55:23.219Z,5.32
2023-05-14T17:57:57.392Z,5.72
2023-05-14T18:00:31.628Z,4.78
2023-05-14T18:03:11.603Z,4.85
2023-05-14T18:05:38.831Z,5.20
2023-05-14T18:08:12.306Z,4.90
2023-05-14T18:10:39.352Z,5.60
2023-05-14T18:13:13.458Z,5.90
2023-05-14T18:15:53.525Z,5.93
2023-05-14T18:21:57.346Z,5.60
2023-05-14T18:24:26.751Z,5.88
2023-05-14T18:27:01.297Z,6.85
2023-05-14T18:29:37.325Z,6.45
2023-05-14T18:32:04.682Z,7.22
2023-05-14T18:34:38.285Z,7.03
2023-05-14T18:37:05.135Z,6.78
2023-05-14T18:39:32.336Z,7.13
2023-05-14T18:42:06.397Z,8.82
2023-05-14T18:44:33.395Z,9.82
2023-05-14T18:47:07.271Z,10.10
2023-05-14T18:49:34.597Z,10.32
2023-05-14T18:52:08.322Z,10.65
2023-05-14T18:54:35.339Z,9.68
2023-05-14T18:57:08.365Z,7.30
2023-05-14T18:59:42.278Z,6.93
2023-05-14T19:02:16.802Z,7.55
2023-05-14T19:04:52.988Z,5.85
2023-05-14T19:07:27.343Z,5.80
2023-05-14T19:10:00.363Z,5.60
2023-05-14T19:12:34.383Z,5.47
2023-05-14T19:15:07.520Z,5.55
2023-05-14T19:17:35.577Z,8.00
2023-05-14T19:20:09.423Z,6.38
2023-05-14T19:22:49.389Z,5.78
2023-05-14T19:25:23.887Z,5.68
2023-05-14T19:27:58.305Z,6.00
2023-05-14T19:30:32.469Z,6.10
2023-05-14T19:33:06.314Z,5.95
2023-05-14T19:35:33.395Z,6.45
2023-05-14T19:38:07.391Z,6.22
2023-05-14T19:40:40.701Z,5.88
2023-05-14T19:43:08.252Z,6.35
2023-05-14T19:45:46.333Z,7.85
2023-05-14T19:48:14.073Z,8.38
2023-05-14T19:50:54.370Z,8.82
2023-05-14T19:53:27.450Z,8.23
2023-05-14T19:55:54.405Z,7.03
2023-05-14T19:58:27.374Z,7.00
2023-05-14T20:00:56.991Z,7.10
2023-05-14T20:03:34.430Z,6.30
2023-05-14T20:06:01.404Z,6.90
2023-05-14T20:08:36.348Z,6.78
2023-05-14T20:11:03.649Z,6.50
2023-05-14T20:13:40.329Z,7.05
2023-05-14T20:16:14.450Z,6.45
2023-05-14T20:18:41.673Z,6.82
2023-05-14T20:21:18.578Z,7.38
2023-05-14T20:23:59.559Z,7.28
2023-05-14T20:26:33.412Z,6.88
2023-05-14T20:29:00.357Z,7.68
2023-05-14T20:31:37.638Z,7.82
2023-05-14T20:34:04.689Z,7.05
2023-05-14T20:36:38.525Z,7.97
2023-05-14T20:39:06.580Z,8.35
2023-05-14T20:41:40.424Z,9.23
2023-05-14T20:44:07.395Z,8.90
2023-05-14T20:46:41.569Z,9.15
2023-05-14T20:49:15.438Z,9.05
2023-05-14T20:51:52.014Z,9.57
2023-05-14T20:54:21.297Z,10.68
2023-05-14T20:56:57.273Z,10.88
2023-05-14T20:59:31.519Z,11.88
2023-05-14T21:02:01.343Z,12.85
2023-05-14T21:04:37.456Z,13.70
2023-05-14T21:07:05.819Z,13.20
2023-05-14T21:09:39.323Z,14.77
2023-05-14T21:12:06.900Z,15.65
2023-05-14T21:14:40.504Z,15.70
2023-05-14T21:17:07.752Z,15.85
2023-05-14T21:19:41.457Z,16.50
2023-05-14T21:22:28.368Z,16.98
2023-05-14T21:25:02.501Z,16.85
2023-05-14T21:27:32.397Z,20.02
2023-05-14T21:30:06.515Z,20.80
2023-05-14T21:32:33.576Z,18.83
2023-05-14T21:35:07.750Z,18.85
2023-05-14T21:37:41.567Z,19.60
2023-05-14T21:40:16.432Z,19.40
2023-05-14T21:42:49.512Z,20.63
2023-05-14T21:45:16.664Z,19.98
2023-05-14T21:47:50.638Z,20.27
2023-05-14T21:50:17.931Z,19.70
2023-05-14T21:52:51.596Z,20.30
2023-05-14T21:55:19.218Z,19.75
2023-05-14T21:57:55.423Z,20.33
2023-05-14T22:00:25.509Z,20.60
2023-05-14T22:02:59.417Z,22.40
2023-05-14T22:05:32.847Z,23.55
2023-05-14T22:08:06.368Z,22.17
2023-05-14T22:10:34.660Z,22.45
2023-05-14T22:13:08.555Z,22.27
2023-05-14T22:15:37.806Z,21.70
2023-05-14T22:18:11.620Z,21.83
2023-05-14T22:20:47.267Z,22.40
2023-05-14T22:23:34.585Z,22.60
2023-05-14T22:26:08.447Z,23.02
2023-05-14T22:28:42.454Z,22.60
2023-05-14T22:31:16.522Z,22.35
2023-05-14T22:33:43.798Z,21.98
2023-05-14T22:36:19.550Z,22.50
2023-05-14T22:38:46.777Z,23.15
2023-05-14T22:41:24.582Z,23.08
2023-05-14T22:43:51.936Z,22.20
2023-05-14T22:46:25.716Z,23.08
2023-05-14T22:48:52.942Z,23.17
2023-05-14T22:51:26.483Z,22.73
2023-05-14T22:54:00.561Z,23.02
2023-05-14T22:56:35.592Z,23.30
2023-05-14T22:59:09.504Z,23.13
2023-05-14T23:01:36.675Z,22.85
2023-05-14T23:04:10.652Z,22.92
2023-05-14T23:06:38.108Z,23.63
2023-05-14T23:09:12.644Z,23.45
2023-05-14T23:11:39.843Z,23.48
2023-05-14T23:14:16.549Z,24.15
2023-05-14T23:16:44.000Z,25.20
2023-05-14T23:19:17.648Z,23.73
2023-05-14T23:22:05.580Z,25.15
2023-05-14T23:24:39.614Z,23.95
2023-05-14T23:27:07.206Z,23.52
2023-05-14T23:29:47.337Z,23.05
2023-05-14T23:32:14.480Z,24.50
2023-05-14T23:34:48.602Z,24.52
2023-05-14T23:37:15.755Z,24.70
2023-05-14T23:39:49.545Z,24.35
2023-05-14T23:42:16.600Z,24.10
2023-05-14T23:44:50.462Z,25.65
2023-05-14T23:47:24.645Z,24.23
2023-05-14T23:49:51.878Z,24.60
2023-05-14T23:52:25.560Z,25.00
2023-05-14T23:54:52.674Z,25.23
2023-05-14T23:57:26.624Z,25.10
